Accueil
METAR-TAF:

METAR-TAF

Aéroports :

Cognac, France

Base aérienne 709 Cognac-Châteaubernard

latitude: 45-40N, longitude: 000-19W, altitude: 30 m

Observation

Le bulletin a été fait il y a 21 minutes, à 00:30 UTC
Vent 5 kt de sud/sud-ouest
Température 18°C
Humidité 88%
Pression 1015 hPa
Visibilité 10 km ou plus
pas de nuages en-dessous de 1500 mètres et pas de cumulonimbus.

METAR: LFBG 270030Z AUTO 20005KT CAVOK 18/16 Q1015

Heure: 02:51 (00:51 UTC)

Prévision

Le bulletin a été fait il y a 10 heures et 51 minutes, à 14:00 UTC
Prévision valable du 26 à 15 UTC au 27 à 15 UTC
Vent 10 kt de ouest
Visibilité 10 km ou plus
Nuages fragmentés à une hauteur de 1500 ft
Temporairement
du 27 à 00 UTC au 27 à 15 UTC
Visibilité: 5000 m
Nuages fragmentés à une hauteur de 700 ft
pluie faible, bruine

TAF: LFBG 261400Z 2615/2715 26010KT 9999 BKN015 TEMPO 2700/2715 5000 -RADZ BKN007

Observations et prévisions météorologiques de plus de 4000 aéroports (messages METAR et TAF).

Les stations disponibles sont représentées par des disques jaunes et rouges sur la carte.

Passer la souris dessus pour voir le nom de la station.

Cliquer dessus pour voir les observations et prévisions météorologiques.

Pour changer de carte: cliquez sur les boutons verts avec une croix noire pour zoomer, sur le bouton vert avec un tiret pour effectuer un zoom arrière, ou sur les flèches vertes pour les cartes adjacentes.


METAR-TAF: